Time;durP1;ratioP1;P1;durP2;ratioP2;P2;SDS_P1;SDS_P2;PMS_P1;PMS_P2;Temp;Humidity;BMP_temperature;BMP_pressure;BME280_temperature;BME280_humidity;BME280_pressure;Samples;Min_cycle;Max_cycle;Signal;HPM_P1;HPM_P2
2022/03/22 00:01:10;;;;;;;20.03;10.87;;;;;;;-1.79;79.62;102767.16;5024861;28;20492;-74
2022/03/22 00:03:38;;;;;;;18.43;10.77;;;;;;;-1.77;82.94;102760.47;5010062;28;20469;-74
2022/03/22 00:06:05;;;;;;;20.80;10.60;;;;;;;-1.78;80.23;102768.03;5009962;28;20473;-74
2022/03/22 00:08:31;;;;;;;18.63;10.50;;;;;;;-1.71;80.09;102775.28;5012258;28;20462;-74
2022/03/22 00:10:58;;;;;;;20.40;11.37;;;;;;;-1.73;77.61;102774.31;5008506;28;20549;-74
2022/03/22 00:13:24;;;;;;;19.00;10.87;;;;;;;-1.61;75.23;102775.03;4993811;28;20461;-74
2022/03/22 00:15:52;;;;;;;17.27;9.83;;;;;;;-1.63;80.91;102775.75;5009997;28;20516;-74
2022/03/22 00:18:19;;;;;;;18.90;10.13;;;;;;;-1.66;83.71;102770.44;5027448;28;20925;-74
2022/03/22 00:20:47;;;;;;;19.37;10.70;;;;;;;-1.72;84.61;102776.09;5014224;28;21118;-74
2022/03/22 00:23:14;;;;;;;18.17;10.47;;;;;;;-1.72;86.71;102774.41;5011675;28;20469;-74
2022/03/22 00:25:40;;;;;;;18.53;10.97;;;;;;;-1.85;82.26;102781.25;5012716;28;20956;-74
2022/03/22 00:28:07;;;;;;;19.63;10.93;;;;;;;-1.86;84.41;102775.28;5015112;28;20547;-74
2022/03/22 00:30:35;;;;;;;19.93;10.43;;;;;;;-1.84;86.95;102776.25;5011711;28;20460;-74
2022/03/22 00:33:04;;;;;;;17.67;10.40;;;;;;;-1.81;89.93;102766.19;5014715;28;20458;-74
2022/03/22 00:35:36;;;;;;;18.03;10.83;;;;;;;-1.86;89.06;102761.63;5000044;28;20464;-74
2022/03/22 00:38:05;;;;;;;19.83;11.43;;;;;;;-1.76;94.21;102752.00;5015137;28;20480;-74
2022/03/22 00:40:32;;;;;;;19.03;10.60;;;;;;;-1.99;nan;102759.97;5012550;28;20470;-74
2022/03/22 00:42:59;;;;;;;19.27;11.00;;;;;;;-2.10;86.04;102760.22;5008890;28;20464;-74
2022/03/22 00:45:27;;;;;;;22.23;12.00;;;;;;;-2.20;83.75;102765.59;5011243;28;20450;-74
2022/03/22 00:47:55;;;;;;;17.70;10.17;;;;;;;-2.19;85.01;102764.78;5015647;28;20508;-74
2022/03/22 00:50:23;;;;;;;16.30;10.87;;;;;;;-2.05;91.88;102757.06;5015535;28;20457;-74
2022/03/22 00:52:49;;;;;;;21.13;10.67;;;;;;;-2.12;91.65;102755.81;4993757;28;20462;-74
2022/03/22 00:55:17;;;;;;;19.80;10.93;;;;;;;-2.25;88.76;102755.88;5015766;28;20825;-74
2022/03/22 00:57:44;;;;;;;19.63;11.43;;;;;;;-2.25;90.53;102750.75;5017002;28;20476;-74
2022/03/22 01:00:13;;;;;;;21.20;10.40;;;;;;;-2.33;89.72;102753.72;5013355;28;20884;-74
2022/03/22 01:02:43;;;;;;;20.73;11.53;;;;;;;-2.26;92.23;102752.44;5012102;28;20457;-74
2022/03/22 01:05:13;;;;;;;20.00;11.03;;;;;;;-2.32;93.12;102745.28;5018873;28;20851;-74
2022/03/22 01:07:41;;;;;;;22.40;11.13;;;;;;;-2.20;95.66;102744.25;5013437;28;20565;-74
2022/03/22 01:10:09;;;;;;;18.83;10.97;;;;;;;-2.46;87.89;102756.34;5015758;28;20461;-74
2022/03/22 01:12:39;;;;;;;18.73;11.33;;;;;;;-2.62;83.18;102764.75;5012216;28;20551;-74
2022/03/22 01:15:09;;;;;;;18.27;10.53;;;;;;;-2.63;85.22;102749.31;5012607;28;20447;-74
2022/03/22 01:17:36;;;;;;;17.67;11.40;;;;;;;-2.61;87.05;102756.25;5011889;28;20578;-74
2022/03/22 01:20:05;;;;;;;19.37;10.97;;;;;;;-2.74;83.08;102762.28;5019931;28;20523;-74
2022/03/22 01:22:32;;;;;;;16.97;9.80;;;;;;;-2.75;85.63;102752.84;5011365;28;20857;-74
2022/03/22 01:24:59;;;;;;;19.73;10.77;;;;;;;-2.52;95.26;102740.63;5015145;28;20467;-74
2022/03/22 01:27:26;;;;;;;21.40;11.37;;;;;;;-2.48;98.31;102732.34;5012722;28;20563;-73
2022/03/22 01:29:54;;;;;;;24.00;12.07;;;;;;;-2.78;88.09;102744.13;5014537;28;20834;-74
2022/03/22 01:32:20;;;;;;;21.63;11.23;;;;;;;-2.72;91.57;102744.53;5027336;28;20967;-73
2022/03/22 01:34:47;;;;;;;20.93;11.40;;;;;;;-2.63;97.08;102732.31;5013811;28;20464;-73
2022/03/22 01:37:14;;;;;;;22.20;11.63;;;;;;;-2.80;94.06;102744.03;5010520;28;20481;-73
2022/03/22 01:39:40;;;;;;;20.00;11.70;;;;;;;-2.77;94.61;102739.13;5014859;28;20468;-74
2022/03/22 01:42:07;;;;;;;17.20;9.93;;;;;;;-2.80;95.38;102735.50;5017108;28;20987;-74
2022/03/22 01:44:34;;;;;;;21.13;10.30;;;;;;;-2.84;96.80;102734.41;5016901;28;20472;-74
2022/03/22 01:47:06;;;;;;;22.17;11.83;;;;;;;-2.83;96.24;102740.41;5015355;28;20570;-74
2022/03/22 01:49:33;;;;;;;20.67;10.77;;;;;;;-2.84;96.64;102738.66;5013869;28;20539;-74
2022/03/22 01:52:00;;;;;;;23.77;12.27;;;;;;;-2.79;98.80;102735.59;4995908;28;20461;-74
2022/03/22 01:54:27;;;;;;;19.67;11.53;;;;;;;-2.87;97.25;102731.66;4996898;28;20546;-74
2022/03/22 01:56:53;;;;;;;24.10;11.20;;;;;;;-2.78;98.97;102732.25;4999290;28;20503;-74
2022/03/22 01:59:20;;;;;;;20.57;11.40;;;;;;;-2.60;100.00;102726.50;5020024;28;20467;-74
2022/03/22 02:07:20;;;;;;;20.27;11.00;;;;;;;-2.80;100.00;102735.50;5013117;28;20488;-73
2022/03/22 02:09:46;;;;;;;20.43;11.83;;;;;;;-2.73;100.00;102724.88;5013221;28;20966;-73
2022/03/22 02:12:13;;;;;;;23.47;12.30;;;;;;;-2.65;100.00;102723.69;5016282;28;20478;-74
2022/03/22 02:14:39;;;;;;;23.20;12.30;;;;;;;-2.82;100.00;102727.72;5013686;28;20466;-74
2022/03/22 02:17:08;;;;;;;21.00;11.93;;;;;;;-2.90;100.00;102736.59;5012894;28;20481;-74
2022/03/22 02:19:37;;;;;;;21.77;12.10;;;;;;;-2.87;100.00;102731.66;5018413;28;20951;-74
2022/03/22 02:22:08;;;;;;;19.87;11.67;;;;;;;-2.93;100.00;102736.41;5019759;28;20835;-74
2022/03/22 02:24:36;;;;;;;22.63;11.53;;;;;;;-2.91;100.00;102720.38;5018541;28;20461;-73
2022/03/22 02:27:02;;;;;;;22.17;11.30;;;;;;;-2.98;100.00;102717.34;5018218;28;20467;-73
2022/03/22 02:29:28;;;;;;;20.03;11.50;;;;;;;-2.91;100.00;102727.16;5044435;28;20467;-74
2022/03/22 02:31:55;;;;;;;22.13;12.40;;;;;;;-2.99;100.00;102726.69;4997273;28;20457;-74
2022/03/22 02:34:22;;;;;;;20.97;12.00;;;;;;;-3.09;100.00;102725.22;5032299;28;20456;-74
2022/03/22 02:36:48;;;;;;;19.50;11.20;;;;;;;-2.79;100.00;102722.81;4999907;28;20535;-73
2022/03/22 02:39:15;;;;;;;23.23;12.17;;;;;;;-2.93;100.00;102714.28;5016916;28;20851;-74
2022/03/22 02:41:45;;;;;;;23.93;11.97;;;;;;;-3.06;100.00;102716.84;5001586;28;20482;-74
2022/03/22 02:44:12;;;;;;;21.43;11.50;;;;;;;-3.20;100.00;102721.13;4999276;28;20457;-73
2022/03/22 02:46:38;;;;;;;22.43;11.97;;;;;;;-3.26;97.71;102729.25;5017205;28;20483;-74
2022/03/22 02:49:06;;;;;;;20.40;12.23;;;;;;;-3.26;96.44;102721.59;5008481;28;20467;-74
2022/03/22 02:51:32;;;;;;;19.47;11.30;;;;;;;-3.19;98.80;102719.44;5015537;28;20953;-73
2022/03/22 02:53:58;;;;;;;22.67;12.00;;;;;;;-3.15;100.00;102718.84;5019271;28;20457;-73
2022/03/22 02:56:25;;;;;;;22.30;12.77;;;;;;;-3.11;100.00;102705.50;5016258;28;20508;-73
2022/03/22 02:58:53;;;;;;;22.30;12.50;;;;;;;-3.17;100.00;102716.19;5003917;28;20458;-74
2022/03/22 03:01:19;;;;;;;23.07;11.93;;;;;;;-3.18;100.00;102717.00;5000168;28;20783;-73
2022/03/22 03:03:45;;;;;;;22.47;11.90;;;;;;;-2.96;100.00;102716.66;5016183;28;20459;-74
2022/03/22 03:06:12;;;;;;;23.67;11.87;;;;;;;-3.00;100.00;102709.59;5015980;28;20481;-74
2022/03/22 03:08:38;;;;;;;24.77;12.57;;;;;;;-2.97;100.00;102717.47;5020687;28;20467;-73
2022/03/22 03:11:05;;;;;;;25.57;12.67;;;;;;;-2.76;100.00;102715.34;5019135;28;20814;-73
2022/03/22 03:16:13;;;;;;;22.83;12.03;;;;;;;-2.68;100.00;102719.25;5019859;28;20476;-74
2022/03/22 03:18:39;;;;;;;22.70;11.70;;;;;;;-2.95;100.00;102726.09;5017548;28;20460;-74
2022/03/22 03:21:06;;;;;;;25.40;12.37;;;;;;;-3.07;100.00;102731.28;5020810;28;21007;-73
2022/03/22 03:23:32;;;;;;;24.00;13.17;;;;;;;-3.29;100.00;102739.28;5016489;28;20460;-74
2022/03/22 03:25:59;;;;;;;19.37;11.70;;;;;;;-3.20;100.00;102738.06;5022668;28;20463;-73
2022/03/22 03:28:28;;;;;;;22.23;11.93;;;;;;;-3.26;100.00;102731.78;5019237;28;20483;-74
2022/03/22 03:30:55;;;;;;;21.47;12.00;;;;;;;-3.37;98.81;102744.66;5014378;28;20451;-73
2022/03/22 03:33:22;;;;;;;24.47;13.40;;;;;;;-3.44;95.03;102746.81;5014348;28;20461;-73
2022/03/22 03:35:49;;;;;;;24.13;12.17;;;;;;;-3.51;92.88;102746.31;5017325;28;21145;-73
2022/03/22 03:38:16;;;;;;;24.63;12.90;;;;;;;-3.54;91.71;102751.22;5021756;28;20489;-74
2022/03/22 03:43:26;;;;;;;22.80;11.83;;;;;;;-3.38;99.12;102735.22;5013752;28;20455;-73
2022/03/22 03:48:38;;;;;;;22.17;12.13;;;;;;;-3.39;98.25;102739.47;5013264;28;20459;-73
2022/03/22 03:51:04;;;;;;;22.40;12.10;;;;;;;-3.40;99.80;102740.22;5019124;28;20471;-74
2022/03/22 03:53:31;;;;;;;19.33;12.23;;;;;;;-3.41;98.97;102741.03;5023555;28;20470;-73
2022/03/22 03:55:57;;;;;;;22.77;12.60;;;;;;;-3.31;98.32;102743.38;5027523;28;20607;-73
2022/03/22 03:58:24;;;;;;;20.03;12.23;;;;;;;-3.29;97.64;102739.28;5020814;28;20955;-73
2022/03/22 04:00:50;;;;;;;21.90;11.50;;;;;;;-3.31;99.02;102734.84;5029414;28;20501;-73
2022/03/22 04:03:17;;;;;;;22.90;12.40;;;;;;;-3.26;99.66;102738.56;5009106;28;20455;-73
2022/03/22 04:05:44;;;;;;;20.63;11.90;;;;;;;-3.24;100.00;102737.91;5000994;28;21127;-74
2022/03/22 04:08:11;;;;;;;18.57;11.20;;;;;;;-3.08;100.00;102733.75;4999274;28;20459;-74
2022/03/22 04:10:37;;;;;;;20.33;11.43;;;;;;;-3.08;100.00;102728.63;5010311;28;20933;-73
2022/03/22 04:13:03;;;;;;;20.03;11.53;;;;;;;-2.99;100.00;102729.25;5016862;28;20444;-74
2022/03/22 04:15:30;;;;;;;21.97;10.97;;;;;;;-3.01;100.00;102733.34;5015571;28;20993;-74
2022/03/22 04:17:59;;;;;;;20.17;11.53;;;;;;;-3.26;100.00;102736.91;5018410;28;20556;-74
2022/03/22 04:20:25;;;;;;;20.83;11.07;;;;;;;-3.25;100.00;102736.13;5017062;28;20838;-73
2022/03/22 04:22:53;;;;;;;23.67;12.87;;;;;;;-3.29;100.00;102735.81;5019556;28;20545;-74
2022/03/22 04:25:20;;;;;;;21.40;11.37;;;;;;;-3.38;100.00;102736.09;5016485;28;20452;-73
2022/03/22 04:33:15;;;;;;;20.00;11.50;;;;;;;-3.55;100.00;102741.78;5017616;28;20486;-73
2022/03/22 04:35:41;;;;;;;22.67;11.37;;;;;;;-3.50;100.00;102736.22;5016728;28;20459;-73
2022/03/22 04:38:09;;;;;;;21.97;12.80;;;;;;;-3.65;100.00;102741.19;5015838;28;20456;-73
2022/03/22 04:40:35;;;;;;;21.70;12.77;;;;;;;-3.51;100.00;102738.66;4998005;28;20470;-73
2022/03/22 04:43:02;;;;;;;20.60;11.63;;;;;;;-3.52;100.00;102736.88;5016026;28;20471;-73
2022/03/22 04:45:28;;;;;;;18.37;11.47;;;;;;;-3.39;100.00;102742.00;5015573;28;20816;-73
2022/03/22 04:47:55;;;;;;;22.93;12.93;;;;;;;-3.36;100.00;102748.97;5024951;28;20483;-76
2022/03/22 04:50:21;;;;;;;20.73;11.37;;;;;;;-3.53;100.00;102747.88;5012099;28;20455;-76
2022/03/22 04:58:34;;;;;;;19.73;11.17;;;;;;;-3.41;100.00;102751.25;5012736;28;20466;-76
2022/03/22 05:01:00;;;;;;;24.20;12.67;;;;;;;-3.33;100.00;102751.72;5014084;28;20444;-75
2022/03/22 05:03:27;;;;;;;21.50;12.13;;;;;;;-3.55;100.00;102752.88;5012892;28;20452;-76
2022/03/22 05:08:37;;;;;;;20.70;11.63;;;;;;;-3.47;100.00;102758.47;5013893;28;20451;-75
2022/03/22 05:11:05;;;;;;;26.83;13.43;;;;;;;-3.61;100.00;102760.13;5014678;28;20456;-76
2022/03/22 05:13:32;;;;;;;24.87;13.17;;;;;;;-3.66;100.00;102764.94;5013105;28;20451;-76
2022/03/22 05:15:58;;;;;;;22.50;13.33;;;;;;;-3.32;100.00;102759.47;5016623;28;20479;-76
2022/03/22 05:18:26;;;;;;;20.77;12.17;;;;;;;-3.38;100.00;102758.19;5013346;28;20466;-76
2022/03/22 05:20:53;;;;;;;27.37;13.83;;;;;;;-3.89;100.00;102773.56;4996600;28;20470;-76
2022/03/22 05:23:20;;;;;;;24.37;13.20;;;;;;;-4.02;99.92;102776.97;4996713;28;20476;-76
2022/03/22 05:25:46;;;;;;;24.30;12.77;;;;;;;-3.89;100.00;102776.13;5016503;28;20800;-76
2022/03/22 05:28:14;;;;;;;24.77;12.57;;;;;;;-3.97;100.00;102779.84;5012891;28;20542;-76
2022/03/22 05:30:40;;;;;;;25.70;11.97;;;;;;;-3.84;100.00;102779.00;5015809;28;20492;-76
2022/03/22 05:33:07;;;;;;;22.27;12.80;;;;;;;-3.78;100.00;102775.97;4995485;28;20452;-76
2022/03/22 05:35:33;;;;;;;25.57;13.17;;;;;;;-3.87;100.00;102777.13;5029630;28;20467;-76
2022/03/22 05:38:00;;;;;;;24.20;13.30;;;;;;;-3.96;100.00;102789.22;5016298;28;21271;-75
2022/03/22 05:40:26;;;;;;;19.93;11.30;;;;;;;-3.94;100.00;102789.34;5016859;28;20462;-76
2022/03/22 05:42:53;;;;;;;26.93;13.63;;;;;;;-3.86;100.00;102794.19;5022399;28;20830;-76
2022/03/22 05:45:21;;;;;;;26.80;14.07;;;;;;;-3.88;100.00;102792.31;5021142;28;20463;-76
2022/03/22 05:47:48;;;;;;;22.27;12.77;;;;;;;-3.59;100.00;102781.50;5012134;28;20471;-76
2022/03/22 05:50:14;;;;;;;26.10;13.17;;;;;;;-3.75;100.00;102789.78;5013040;28;20460;-76
2022/03/22 05:52:45;;;;;;;27.37;13.27;;;;;;;-3.58;100.00;102780.72;5031373;28;20455;-76
2022/03/22 05:55:12;;;;;;;23.00;12.73;;;;;;;-3.38;100.00;102779.47;5018314;28;20488;-76
2022/03/22 05:57:39;;;;;;;23.93;13.43;;;;;;;-3.41;100.00;102784.41;5014206;28;20917;-76
2022/03/22 06:00:08;;;;;;;22.80;11.97;;;;;;;-3.38;100.00;102786.25;4996736;28;20802;-76
2022/03/22 06:02:39;;;;;;;29.00;14.03;;;;;;;-3.12;100.00;102790.50;5010498;28;21102;-76
2022/03/22 06:05:08;;;;;;;25.80;13.43;;;;;;;-3.19;100.00;102783.22;5011229;28;20463;-76
2022/03/22 06:07:34;;;;;;;24.97;12.67;;;;;;;-3.09;100.00;102783.03;4998321;28;20554;-76
2022/03/22 06:10:00;;;;;;;28.30;13.97;;;;;;;-3.01;100.00;102786.94;5011499;28;20952;-76
2022/03/22 06:12:34;;;;;;;29.50;14.60;;;;;;;-2.79;100.00;102781.56;5014926;28;20458;-76
2022/03/22 06:17:55;;;;;;;29.80;14.90;;;;;;;-2.86;100.00;102793.03;5074031;27;20668;-66
2022/03/22 06:20:23;;;;;;;29.13;14.53;;;;;;;-2.77;100.00;102804.63;5058095;28;20456;-66
2022/03/22 06:22:50;;;;;;;24.60;13.47;;;;;;;-2.42;92.30;102811.06;5052791;28;20517;-66
2022/03/22 06:25:18;;;;;;;23.67;12.20;;;;;;;-2.22;88.37;102819.94;5052914;28;20462;-65
2022/03/22 06:27:47;;;;;;;21.03;12.50;;;;;;;-2.06;85.96;102829.44;5051001;28;20546;-66
2022/03/22 06:30:15;;;;;;;23.03;12.33;;;;;;;-1.83;84.51;102828.25;5050372;28;20854;-66
2022/03/22 06:32:42;;;;;;;24.60;12.03;;;;;;;-1.49;80.60;102831.16;5051861;28;20462;-66
2022/03/22 06:35:10;;;;;;;22.60;12.17;;;;;;;-1.08;77.04;102837.75;5053073;28;21126;-66
2022/03/22 06:37:37;;;;;;;22.63;11.33;;;;;;;-0.81;74.83;102853.81;5050970;28;21006;-67
2022/03/22 06:40:05;;;;;;;19.23;10.90;;;;;;;-0.46;72.24;102851.44;5056123;28;20467;-67
2022/03/22 06:42:31;;;;;;;20.77;10.97;;;;;;;-0.37;72.21;102849.38;5051870;28;20447;-66
2022/03/22 06:44:58;;;;;;;19.13;11.30;;;;;;;-0.24;72.13;102849.25;5054997;28;20474;-66
2022/03/22 06:47:24;;;;;;;24.97;11.27;;;;;;;-0.09;70.56;102849.19;5054097;28;20542;-66
2022/03/22 06:49:51;;;;;;;20.33;11.53;;;;;;;0.05;69.92;102855.03;5060029;28;20467;-66
2022/03/22 06:52:18;;;;;;;18.47;11.50;;;;;;;0.08;71.68;102850.06;5051485;28;20445;-67
2022/03/22 06:54:45;;;;;;;21.10;11.37;;;;;;;0.25;69.12;102855.22;5064547;28;20219;-67
2022/03/22 06:57:11;;;;;;;19.53;11.80;;;;;;;0.47;66.22;102852.91;5053644;28;20305;-66
2022/03/22 06:59:38;;;;;;;19.13;11.27;;;;;;;0.62;65.67;102854.53;5063106;28;20274;-66
2022/03/22 07:02:05;;;;;;;25.47;11.87;;;;;;;0.71;64.88;102860.13;5051254;28;20389;-66
2022/03/22 07:04:31;;;;;;;18.27;10.90;;;;;;;0.84;64.75;102859.91;5057703;28;20320;-66
2022/03/22 07:06:58;;;;;;;21.20;10.93;;;;;;;1.08;62.65;102862.81;5054751;28;20206;-67
2022/03/22 07:09:26;;;;;;;19.60;11.20;;;;;;;1.29;61.92;102865.53;5054109;28;20702;-66
2022/03/22 07:11:55;;;;;;;22.80;11.40;;;;;;;1.52;60.35;102871.75;5052904;28;20237;-67
2022/03/22 07:14:22;;;;;;;20.33;11.57;;;;;;;1.75;58.80;102879.66;5059187;28;20276;-66
2022/03/22 07:16:49;;;;;;;23.37;12.27;;;;;;;1.82;58.71;102876.56;5057192;28;20223;-66
2022/03/22 07:19:16;;;;;;;20.37;10.70;;;;;;;1.93;58.48;102884.75;5058349;28;20207;-65
2022/03/22 07:21:45;;;;;;;18.47;10.10;;;;;;;2.03;57.39;102886.94;5055162;28;20233;-67
2022/03/22 07:24:14;;;;;;;19.07;9.93;;;;;;;2.23;56.39;102881.81;5058023;28;20736;-67
2022/03/22 07:26:42;;;;;;;15.77;9.67;;;;;;;2.40;54.57;102878.28;5057568;28;20572;-67
2022/03/22 07:29:09;;;;;;;16.60;9.83;;;;;;;2.49;54.40;102877.81;5043875;28;20198;-67
2022/03/22 07:31:38;;;;;;;20.00;10.63;;;;;;;2.68;53.43;102882.06;5039977;28;20209;-66
2022/03/22 07:34:05;;;;;;;19.53;10.70;;;;;;;2.78;53.54;102871.31;5037159;28;20316;-67
2022/03/22 07:36:31;;;;;;;21.37;10.63;;;;;;;3.02;52.51;102876.59;5043152;28;20229;-67
2022/03/22 07:38:58;;;;;;;19.60;10.47;;;;;;;3.18;52.44;102884.94;5038037;28;20687;-67
2022/03/22 07:41:24;;;;;;;17.63;10.23;;;;;;;3.25;52.18;102881.78;5045285;28;20214;-66
2022/03/22 07:43:54;;;;;;;18.10;10.40;;;;;;;3.36;52.48;102880.53;5039383;28;21464;-67
2022/03/22 07:46:20;;;;;;;19.23;10.37;;;;;;;3.57;51.96;102877.94;5045466;28;20203;-67
2022/03/22 07:48:47;;;;;;;17.43;10.00;;;;;;;3.77;49.98;102885.56;5039113;28;20196;-67
2022/03/22 07:53:57;;;;;;;17.70;10.07;;;;;;;4.04;50.06;102885.69;5041296;28;20231;-67
2022/03/22 07:56:23;;;;;;;20.00;10.53;;;;;;;4.20;48.43;102881.09;5042917;28;20227;-67
2022/03/22 07:58:51;;;;;;;16.13;9.87;;;;;;;4.36;49.31;102878.22;5037949;28;20294;-66
2022/03/22 08:01:17;;;;;;;19.90;9.83;;;;;;;4.51;48.62;102872.75;5041847;28;20199;-67
2022/03/22 08:03:44;;;;;;;21.63;10.37;;;;;;;4.68;47.55;102881.09;5040299;28;20699;-67
2022/03/22 08:06:10;;;;;;;18.93;10.07;;;;;;;4.81;48.32;102862.56;5044009;28;20656;-67
2022/03/22 08:08:37;;;;;;;14.97;9.67;;;;;;;4.89;47.51;102868.88;5038160;28;20422;-67
2022/03/22 08:11:05;;;;;;;16.20;9.77;;;;;;;5.03;47.48;102866.75;5040055;28;20246;-66
2022/03/22 08:13:32;;;;;;;16.07;9.47;;;;;;;5.30;46.81;102878.78;5038561;28;20239;-66
2022/03/22 08:15:59;;;;;;;14.77;9.27;;;;;;;5.45;46.40;102868.94;5044206;28;20199;-67
2022/03/22 08:18:26;;;;;;;14.00;8.90;;;;;;;5.55;45.44;102867.50;5039109;28;20231;-67
2022/03/22 08:20:53;;;;;;;17.60;9.73;;;;;;;5.67;45.25;102870.44;5044316;28;20559;-67
2022/03/22 08:23:20;;;;;;;17.23;9.67;;;;;;;5.73;46.06;102859.41;5036861;28;20739;-67
2022/03/22 08:25:48;;;;;;;19.40;10.17;;;;;;;5.98;44.62;102858.44;5039815;28;20245;-67
2022/03/22 08:28:15;;;;;;;18.00;9.90;;;;;;;6.16;44.07;102864.97;5039763;28;20231;-67
2022/03/22 08:30:42;;;;;;;17.67;9.77;;;;;;;6.53;43.36;102861.66;5038274;28;20251;-66
2022/03/22 08:33:12;;;;;;;18.73;10.03;;;;;;;6.62;44.11;102859.31;5039299;28;20314;-67
2022/03/22 08:35:41;;;;;;;17.77;10.93;;;;;;;6.63;44.46;102853.31;5039384;28;20195;-67
2022/03/22 08:38:10;;;;;;;15.40;10.07;;;;;;;6.76;43.62;102851.00;5042086;28;20266;-67
2022/03/22 08:40:37;;;;;;;15.93;10.40;;;;;;;6.82;43.47;102854.66;5041334;28;20198;-67
2022/03/22 08:43:06;;;;;;;16.43;9.93;;;;;;;6.91;44.24;102851.41;5035830;28;20207;-66
2022/03/22 08:45:33;;;;;;;16.37;10.63;;;;;;;6.96;43.75;102847.19;5038367;28;20191;-67
2022/03/22 08:48:01;;;;;;;18.43;11.63;;;;;;;7.17;42.92;102845.94;5039048;28;20204;-67
2022/03/22 08:50:29;;;;;;;16.50;10.50;;;;;;;7.37;42.60;102851.63;5039256;28;20203;-67
2022/03/22 08:52:57;;;;;;;17.37;9.53;;;;;;;7.53;42.81;102837.25;5035442;28;20199;-67
2022/03/22 08:55:25;;;;;;;16.70;10.13;;;;;;;7.77;40.86;102836.88;5036109;28;20668;-67
2022/03/22 08:57:52;;;;;;;14.57;9.67;;;;;;;7.97;41.18;102827.78;5041153;28;20322;-67
2022/03/22 09:00:20;;;;;;;16.50;9.10;;;;;;;8.07;39.97;102836.66;5033796;28;20199;-67
2022/03/22 09:02:48;;;;;;;14.53;9.47;;;;;;;8.25;40.65;102832.63;5041488;28;20672;-68
2022/03/22 09:08:01;;;;;;;15.00;9.53;;;;;;;8.56;39.40;102828.03;5036805;28;20207;-67
2022/03/22 09:10:29;;;;;;;14.60;8.57;;;;;;;8.68;39.50;102831.69;5037053;28;20253;-67
2022/03/22 09:12:55;;;;;;;14.53;8.87;;;;;;;8.77;39.43;102827.50;5042344;28;20196;-67
2022/03/22 09:15:25;;;;;;;15.57;8.47;;;;;;;9.00;37.30;102822.66;5036205;28;20552;-68
2022/03/22 09:17:53;;;;;;;12.83;8.67;;;;;;;9.23;37.64;102818.69;5039633;28;20226;-67
2022/03/22 09:20:20;;;;;;;17.67;8.83;;;;;;;9.39;36.41;102834.50;5037411;28;20210;-67
2022/03/22 09:22:49;;;;;;;14.50;9.00;;;;;;;9.50;35.97;102825.13;5035868;28;20761;-68
2022/03/22 09:25:17;;;;;;;13.53;8.27;;;;;;;9.62;36.23;102833.13;5037028;28;20471;-67
2022/03/22 09:27:44;;;;;;;11.93;8.53;;;;;;;9.74;34.75;102832.38;5037565;28;20203;-67
2022/03/22 09:30:12;;;;;;;11.40;8.00;;;;;;;9.94;34.78;102826.56;5034007;28;20211;-68
2022/03/22 09:32:41;;;;;;;15.30;8.07;;;;;;;10.07;35.10;102827.56;5043747;28;20205;-67
2022/03/22 09:35:10;;;;;;;10.60;8.53;;;;;;;10.07;34.59;102823.22;5035226;28;20649;-67
2022/03/22 09:37:37;;;;;;;13.70;8.30;;;;;;;10.17;33.98;102822.47;5040656;28;20220;-67
2022/03/22 09:40:05;;;;;;;14.87;9.07;;;;;;;10.31;33.41;102819.13;5040088;28;20602;-67
2022/03/22 09:42:33;;;;;;;13.77;8.30;;;;;;;10.37;34.09;102825.28;5038111;28;20202;-67
2022/03/22 09:45:01;;;;;;;9.63;7.80;;;;;;;10.45;32.68;102816.66;5035288;28;20217;-68
2022/03/22 09:47:27;;;;;;;12.03;8.17;;;;;;;10.59;33.51;102813.34;5041785;28;20203;-67
2022/03/22 09:49:54;;;;;;;11.73;8.43;;;;;;;10.66;33.67;102806.44;5036881;28;20321;-68
2022/03/22 09:52:21;;;;;;;11.33;8.23;;;;;;;10.82;33.64;102802.22;5041021;28;20200;-66
2022/03/22 09:54:48;;;;;;;10.73;7.90;;;;;;;10.93;33.34;102804.91;5037432;28;20312;-67
2022/03/22 09:57:15;;;;;;;11.20;7.60;;;;;;;11.04;32.99;102791.91;5039322;28;20215;-68
2022/03/22 09:59:43;;;;;;;10.77;7.57;;;;;;;11.15;31.58;102792.84;5037606;28;21302;-67
2022/03/22 10:02:10;;;;;;;14.60;7.30;;;;;;;11.20;32.36;102785.03;5036234;28;20204;-67
2022/03/22 10:04:38;;;;;;;9.83;7.03;;;;;;;11.31;33.21;102784.25;5038947;28;20214;-68
2022/03/22 10:07:06;;;;;;;10.20;6.93;;;;;;;11.46;31.12;102785.19;5040460;28;20221;-68
2022/03/22 10:09:33;;;;;;;11.67;6.60;;;;;;;11.62;30.91;102776.53;5037754;28;20208;-68
2022/03/22 10:12:00;;;;;;;11.87;6.73;;;;;;;11.71;30.40;102776.59;5035207;28;20295;-68
2022/03/22 10:14:34;;;;;;;11.30;7.10;;;;;;;11.78;30.83;102767.00;5041171;28;20228;-68
2022/03/22 10:17:12;;;;;;;8.87;6.50;;;;;;;11.84;31.33;102764.44;5039199;28;20637;-68
2022/03/22 10:19:45;;;;;;;10.20;7.07;;;;;;;12.01;30.91;102766.22;5040523;28;20202;-68
2022/03/22 10:22:12;;;;;;;9.67;7.00;;;;;;;11.98;31.15;102766.22;5038526;28;20222;-68
2022/03/22 10:24:43;;;;;;;9.13;6.90;;;;;;;12.07;30.75;102763.63;5035145;28;20216;-68
2022/03/22 10:27:19;;;;;;;9.90;6.10;;;;;;;12.29;29.83;102762.81;5030743;28;20199;-68
2022/03/22 10:29:46;;;;;;;8.20;6.53;;;;;;;12.46;29.14;102762.78;5035119;28;20208;-68
2022/03/22 10:32:14;;;;;;;10.77;6.40;;;;;;;12.48;29.17;102757.56;5032822;28;20323;-67
2022/03/22 10:34:42;;;;;;;7.53;5.77;;;;;;;12.54;28.85;102760.19;5039960;28;20221;-68
2022/03/22 10:37:08;;;;;;;8.57;6.10;;;;;;;12.67;29.68;102758.41;5035724;28;20775;-67
2022/03/22 10:39:39;;;;;;;8.53;6.30;;;;;;;12.75;27.92;102759.28;5044057;28;20238;-67
2022/03/22 10:42:08;;;;;;;8.80;6.20;;;;;;;12.80;29.41;102759.28;5033665;28;20228;-68
2022/03/22 10:44:36;;;;;;;7.50;5.73;;;;;;;12.92;27.96;102756.63;5033614;28;20218;-67
2022/03/22 10:47:05;;;;;;;10.27;6.07;;;;;;;12.98;27.69;102760.97;5031194;28;20207;-68
2022/03/22 10:49:32;;;;;;;8.57;5.80;;;;;;;13.02;28.74;102750.50;5032627;28;20579;-67
2022/03/22 10:51:59;;;;;;;8.23;5.63;;;;;;;13.16;27.50;102752.22;5035920;28;20213;-67
2022/03/22 10:54:25;;;;;;;9.03;6.03;;;;;;;13.28;27.36;102752.19;5039481;28;20311;-68
2022/03/22 10:56:53;;;;;;;7.97;5.57;;;;;;;13.34;28.34;102746.94;5038808;28;20217;-68
2022/03/22 10:59:21;;;;;;;7.43;5.53;;;;;;;13.39;26.73;102742.56;5043964;28;20198;-66
2022/03/22 11:01:50;;;;;;;8.27;5.73;;;;;;;13.38;27.71;102743.41;5033414;28;20250;-65
2022/03/22 11:04:19;;;;;;;7.77;5.50;;;;;;;13.51;27.13;102744.25;5040973;28;20627;-65
2022/03/22 11:06:47;;;;;;;7.40;5.60;;;;;;;13.71;26.77;102743.28;5042133;28;20617;-66
2022/03/22 11:09:14;;;;;;;8.07;5.37;;;;;;;13.75;25.92;102743.22;5043489;28;20206;-65
2022/03/22 11:11:41;;;;;;;8.80;5.80;;;;;;;13.82;26.43;102731.84;5038395;28;20218;-65
2022/03/22 11:14:08;;;;;;;7.57;5.50;;;;;;;13.90;26.47;102734.41;5042647;28;20215;-65
2022/03/22 11:16:35;;;;;;;9.67;5.23;;;;;;;13.91;26.21;102724.78;5041339;28;20203;-66
2022/03/22 11:19:04;;;;;;;6.50;5.10;;;;;;;14.10;25.09;102741.28;5045223;28;20249;-66
2022/03/22 11:21:32;;;;;;;7.80;4.97;;;;;;;14.15;25.48;102726.38;5043684;28;20209;-64
2022/03/22 11:24:08;;;;;;;7.37;5.00;;;;;;;14.15;25.28;102721.13;5043030;28;20219;-64
2022/03/22 11:26:41;;;;;;;8.57;4.93;;;;;;;14.19;25.77;102723.72;5042843;28;20296;-66
2022/03/22 11:29:09;;;;;;;7.43;4.97;;;;;;;14.34;24.93;102725.34;5042210;28;20670;-66
2022/03/22 11:31:37;;;;;;;7.27;4.77;;;;;;;14.38;24.79;102713.91;5039646;28;20639;-65
2022/03/22 11:34:09;;;;;;;5.93;4.63;;;;;;;14.41;24.80;102714.81;5036450;28;20229;-65
2022/03/22 11:36:43;;;;;;;7.13;4.80;;;;;;;14.49;25.38;102705.09;5043076;28;20215;-66
2022/03/22 11:39:17;;;;;;;7.03;4.93;;;;;;;14.56;24.61;102697.16;5042705;28;20251;-66
2022/03/22 11:44:35;;;;;;;8.97;5.30;;;;;;;14.76;25.00;102696.13;5041598;28;20221;-65
2022/03/22 11:47:05;;;;;;;6.90;5.10;;;;;;;14.73;24.47;102701.38;5040181;28;20231;-65
2022/03/22 11:49:32;;;;;;;7.10;6.03;;;;;;;14.75;24.46;102683.84;5038169;28;20207;-65
2022/03/22 11:52:11;;;;;;;8.00;5.77;;;;;;;15.01;24.84;102695.84;5041638;28;20196;-65